SAWG

Piloto Civil N. Fernández Airport

Rio Gallegos, Argentina
TAF SAWG 230500Z 2306/2406 30018G28KT 9999 FEW030 BKN090 TX14/2319Z TN03/2310Z BECMG 2318/2320 29015KT CAVOK
Issued Valid From Valid To
Apr-23 @ 05:00 UTC
(5 hours ago)
Apr-23 @ 06:00 UTC
(4 hours ago)
Apr-24 @ 06:00 UTC
(in 20 hours)
Apr-23 @ 06:00 to Apr-23 @ 18:00
TAF SAWG 230500Z 2306/2406 30018G28KT 9999 FEW030 BKN090 TX14/2319Z TN03/2310Z
Wind Visibility Clouds
300° at 18 knots
 Gusting to 28 knots
10,000+ meters
  • Few at 3,000' AGL
  • Broken at 9,000' AGL
Becoming Apr-23 @ 18:00 to Apr-24 @ 06:00
BECMG 2318/2320 29015KT CAVOK
Wind Visibility Clouds Conditions
290° at 15 knots 10,000+ meters
  • No significant clouds
TAF SAWG 230500Z 2306/2406 30018G28KT 9999 FEW030 BKN090 TX14/2319Z TN03/2310Z BECMG 2318/2320 29015KT CAVOK
Issued Apr-23 @ 05:00 UTC
(5 hours ago)
Valid From Apr-23 @ 06:00 UTC
(4 hours ago)
Valid To Apr-24 @ 06:00 UTC
(in 20 hours)
Apr-23 @ 06:00 - Apr-23 @ 18:00
Wind Visibility
300° at 18 knots
 Gusting to 28 knots
10,000+ meters
Clouds
  • Few at 3,000' AGL
  • Broken at 9,000' AGL
Becoming Apr-23 @ 18:00 - Apr-24 @ 06:00
Wind Visibility
290° at 15 knots 10,000+ meters
Clouds
  • No significant clouds
Conditions